sensor_id;sensor_type;location;lat;lon;timestamp;pressure;altitude;pressure_sealevel;temperature;humidity
76156;BME280;64906;51.290;7.348;2023-05-15T00:01:42;98473.19;;;20.35;46.59
76156;BME280;64906;51.290;7.348;2023-05-15T00:04:07;98479.25;;;20.32;46.77
76156;BME280;64906;51.290;7.348;2023-05-15T00:06:32;98484.22;;;20.30;46.77
76156;BME280;64906;51.290;7.348;2023-05-15T00:08:58;98474.91;;;20.31;46.87
76156;BME280;64906;51.290;7.348;2023-05-15T00:11:23;98477.13;;;20.29;46.84
76156;BME280;64906;51.290;7.348;2023-05-15T00:13:52;98478.72;;;20.30;46.66
76156;BME280;64906;51.290;7.348;2023-05-15T00:16:17;98474.06;;;20.30;46.89
76156;BME280;64906;51.290;7.348;2023-05-15T00:18:42;98474.06;;;20.30;46.75
76156;BME280;64906;51.290;7.348;2023-05-15T00:21:08;98471.13;;;20.27;46.56
76156;BME280;64906;51.290;7.348;2023-05-15T00:23:33;98477.72;;;20.26;46.97
76156;BME280;64906;51.290;7.348;2023-05-15T00:25:58;98467.28;;;20.28;46.83
76156;BME280;64906;51.290;7.348;2023-05-15T00:28:24;98464.00;;;20.26;46.71
76156;BME280;64906;51.290;7.348;2023-05-15T00:30:49;98456.09;;;20.24;47.00
76156;BME280;64906;51.290;7.348;2023-05-15T00:33:15;98471.72;;;20.24;46.69
76156;BME280;64906;51.290;7.348;2023-05-15T00:35:41;98456.09;;;20.24;46.94
76156;BME280;64906;51.290;7.348;2023-05-15T00:38:06;98453.34;;;20.24;47.04
76156;BME280;64906;51.290;7.348;2023-05-15T00:40:32;98464.63;;;20.23;46.84
76156;BME280;64906;51.290;7.348;2023-05-15T00:42:58;98457.19;;;20.23;46.65
76156;BME280;64906;51.290;7.348;2023-05-15T00:45:25;98459.94;;;20.23;46.80
76156;BME280;64906;51.290;7.348;2023-05-15T00:47:52;98457.00;;;20.20;46.70
76156;BME280;64906;51.290;7.348;2023-05-15T00:50:18;98457.78;;;20.20;46.93
76156;BME280;64906;51.290;7.348;2023-05-15T00:52:44;98460.53;;;20.20;46.99
76156;BME280;64906;51.290;7.348;2023-05-15T00:55:09;98447.13;;;20.19;46.71
76156;BME280;64906;51.290;7.348;2023-05-15T00:57:36;98451.00;;;20.18;47.04
76156;BME280;64906;51.290;7.348;2023-05-15T01:00:02;98444.38;;;20.19;46.93
76156;BME280;64906;51.290;7.348;2023-05-15T01:02:30;98444.69;;;20.17;46.79
76156;BME280;64906;51.290;7.348;2023-05-15T01:04:56;98446.31;;;20.18;46.89
76156;BME280;64906;51.290;7.348;2023-05-15T01:07:21;98438.38;;;20.17;46.68
76156;BME280;64906;51.290;7.348;2023-05-15T01:09:48;98444.16;;;20.15;47.11
76156;BME280;64906;51.290;7.348;2023-05-15T01:12:14;98434.28;;;20.14;47.20
76156;BME280;64906;51.290;7.348;2023-05-15T01:14:41;98440.63;;;20.15;46.81
76156;BME280;64906;51.290;7.348;2023-05-15T01:17:06;98435.41;;;20.13;46.90
76156;BME280;64906;51.290;7.348;2023-05-15T01:19:31;98432.69;;;20.13;46.73
76156;BME280;64906;51.290;7.348;2023-05-15T01:22:21;98435.16;;;20.15;46.67
76156;BME280;64906;51.290;7.348;2023-05-15T01:25:18;98437.34;;;20.13;46.94
76156;BME280;64906;51.290;7.348;2023-05-15T01:27:50;98431.84;;;20.13;46.89
76156;BME280;64906;51.290;7.348;2023-05-15T01:30:28;98428.59;;;20.11;47.05
76156;BME280;64906;51.290;7.348;2023-05-15T01:33:31;98428.59;;;20.11;46.78
76156;BME280;64906;51.290;7.348;2023-05-15T01:36:02;98426.75;;;20.06;47.18
76156;BME280;64906;51.290;7.348;2023-05-15T01:38:40;98424.25;;;20.10;46.73
76156;BME280;64906;51.290;7.348;2023-05-15T01:41:15;98423.72;;;20.08;46.84
76156;BME280;64906;51.290;7.348;2023-05-15T01:43:47;98426.47;;;20.08;46.85
76156;BME280;64906;51.290;7.348;2023-05-15T01:46:18;98422.59;;;20.08;47.05
76156;BME280;64906;51.290;7.348;2023-05-15T01:48:47;98422.59;;;20.08;47.06
76156;BME280;64906;51.290;7.348;2023-05-15T01:51:14;98425.63;;;20.07;47.00
76156;BME280;64906;51.290;7.348;2023-05-15T01:53:41;98422.09;;;20.07;47.03
76156;BME280;64906;51.290;7.348;2023-05-15T01:56:10;98414.16;;;20.05;46.82
76156;BME280;64906;51.290;7.348;2023-05-15T01:58:37;98424.63;;;20.03;46.79
76156;BME280;64906;51.290;7.348;2023-05-15T02:01:04;98421.06;;;20.02;47.11
76156;BME280;64906;51.290;7.348;2023-05-15T02:03:31;98415.88;;;20.01;46.78
76156;BME280;64906;51.290;7.348;2023-05-15T02:06:01;98422.97;;;20.02;47.03
76156;BME280;64906;51.290;7.348;2023-05-15T02:08:28;98428.16;;;20.03;47.03
76156;BME280;64906;51.290;7.348;2023-05-15T02:10:57;98422.97;;;20.02;46.82
76156;BME280;64906;51.290;7.348;2023-05-15T02:13:24;98429.88;;;19.99;46.91
76156;BME280;64906;51.290;7.348;2023-05-15T02:15:50;98423.28;;;20.00;46.99
76156;BME280;64906;51.290;7.348;2023-05-15T02:18:15;98423.28;;;20.00;46.79
76156;BME280;64906;51.290;7.348;2023-05-15T02:20:40;98420.00;;;19.98;47.00
76156;BME280;64906;51.290;7.348;2023-05-15T02:23:06;98423.56;;;19.99;46.76
76156;BME280;64906;51.290;7.348;2023-05-15T02:25:49;98420.00;;;19.98;46.96
76156;BME280;64906;51.290;7.348;2023-05-15T02:28:35;98423.03;;;19.97;47.13
76156;BME280;64906;51.290;7.348;2023-05-15T02:31:40;98419.50;;;19.96;46.97
76156;BME280;64906;51.290;7.348;2023-05-15T02:34:27;98415.13;;;19.95;47.14
76156;BME280;64906;51.290;7.348;2023-05-15T02:36:57;98414.63;;;19.93;46.89
76156;BME280;64906;51.290;7.348;2023-05-15T02:39:25;98422.84;;;19.93;46.87
76156;BME280;64906;51.290;7.348;2023-05-15T02:41:51;98419.00;;;19.94;46.78
76156;BME280;64906;51.290;7.348;2023-05-15T02:44:18;98420.13;;;19.93;46.87
76156;BME280;64906;51.290;7.348;2023-05-15T02:46:45;98416.56;;;19.93;47.28
76156;BME280;64906;51.290;7.348;2023-05-15T02:49:12;98419.59;;;19.91;47.15
76156;BME280;64906;51.290;7.348;2023-05-15T02:51:38;98417.16;;;19.90;47.06
76156;BME280;64906;51.290;7.348;2023-05-15T02:54:03;98417.94;;;19.90;46.98
76156;BME280;64906;51.290;7.348;2023-05-15T02:56:29;98413.59;;;19.89;46.82
76156;BME280;64906;51.290;7.348;2023-05-15T02:58:54;98415.22;;;19.90;47.13
76156;BME280;64906;51.290;7.348;2023-05-15T03:01:19;98408.63;;;19.91;46.91
76156;BME280;64906;51.290;7.348;2023-05-15T03:03:45;98418.53;;;19.87;46.88
76156;BME280;64906;51.290;7.348;2023-05-15T03:06:11;98411.16;;;19.88;47.09
76156;BME280;64906;51.290;7.348;2023-05-15T03:08:36;98411.97;;;19.88;46.84
76156;BME280;64906;51.290;7.348;2023-05-15T03:11:01;98403.47;;;19.90;46.73
76156;BME280;64906;51.290;7.348;2023-05-15T03:13:27;98401.09;;;19.83;46.87
76156;BME280;64906;51.290;7.348;2023-05-15T03:15:52;98410.31;;;19.87;47.27
76156;BME280;64906;51.290;7.348;2023-05-15T03:18:17;98405.97;;;19.86;46.76
76156;BME280;64906;51.290;7.348;2023-05-15T03:20:43;98406.56;;;19.83;47.19
76156;BME280;64906;51.290;7.348;2023-05-15T03:23:08;98407.66;;;19.82;46.89
76156;BME280;64906;51.290;7.348;2023-05-15T03:25:34;98404.94;;;19.82;46.79
76156;BME280;64906;51.290;7.348;2023-05-15T03:27:59;98442.66;;;19.85;47.12
76156;BME280;64906;51.290;7.348;2023-05-15T03:30:24;98427.66;;;19.83;46.92
76156;BME280;64906;51.290;7.348;2023-05-15T03:32:49;98407.66;;;19.82;47.38
76156;BME280;64906;51.290;7.348;2023-05-15T03:35:15;98418.91;;;19.81;47.14
76156;BME280;64906;51.290;7.348;2023-05-15T03:37:40;98431.22;;;19.83;46.99
76156;BME280;64906;51.290;7.348;2023-05-15T03:40:06;98424.41;;;19.81;46.86
76156;BME280;64906;51.290;7.348;2023-05-15T03:42:32;98422.47;;;19.81;47.18
76156;BME280;64906;51.290;7.348;2023-05-15T03:44:57;98413.44;;;19.81;47.06
76156;BME280;64906;51.290;7.348;2023-05-15T03:47:23;98425.81;;;19.78;47.11
76156;BME280;64906;51.290;7.348;2023-05-15T03:49:48;98426.31;;;19.80;46.96
76156;BME280;64906;51.290;7.348;2023-05-15T03:52:13;98420.34;;;19.78;46.83
76156;BME280;64906;51.290;7.348;2023-05-15T03:54:39;98418.91;;;19.81;46.83
76156;BME280;64906;51.290;7.348;2023-05-15T03:57:05;98428.25;;;19.80;46.76
76156;BME280;64906;51.290;7.348;2023-05-15T03:59:30;98434.34;;;19.77;47.04
76156;BME280;64906;51.290;7.348;2023-05-15T04:01:56;98421.44;;;19.77;47.16
76156;BME280;64906;51.290;7.348;2023-05-15T04:04:21;98420.63;;;19.77;46.84
76156;BME280;64906;51.290;7.348;2023-05-15T04:06:46;98426.91;;;19.77;46.93
76156;BME280;64906;51.290;7.348;2023-05-15T04:09:12;98416.47;;;19.79;47.15
76156;BME280;64906;51.290;7.348;2023-05-15T04:11:37;98415.16;;;19.77;47.01
76156;BME280;64906;51.290;7.348;2023-05-15T04:14:02;98421.22;;;19.74;47.23
76156;BME280;64906;51.290;7.348;2023-05-15T04:16:28;98424.47;;;19.76;47.08
76156;BME280;64906;51.290;7.348;2023-05-15T04:18:53;98432.69;;;19.76;46.97
76156;BME280;64906;51.290;7.348;2023-05-15T04:21:18;98421.72;;;19.76;46.92
76156;BME280;64906;51.290;7.348;2023-05-15T04:23:44;98425.59;;;19.75;46.94
76156;BME280;64906;51.290;7.348;2023-05-15T04:26:09;98435.94;;;19.78;46.71
76156;BME280;64906;51.290;7.348;2023-05-15T04:28:34;98426.91;;;19.77;46.90
76156;BME280;64906;51.290;7.348;2023-05-15T04:30:59;98420.13;;;19.75;47.10
76156;BME280;64906;51.290;7.348;2023-05-15T04:33:25;98425.00;;;19.78;47.05
76156;BME280;64906;51.290;7.348;2023-05-15T04:35:50;98429.16;;;19.75;46.84
76156;BME280;64906;51.290;7.348;2023-05-15T04:38:16;98432.69;;;19.76;47.02
76156;BME280;64906;51.290;7.348;2023-05-15T04:40:41;98419.28;;;19.74;47.01
76156;BME280;64906;51.290;7.348;2023-05-15T04:43:07;98422.03;;;19.74;46.88
76156;BME280;64906;51.290;7.348;2023-05-15T04:45:32;98428.84;;;19.77;47.09
76156;BME280;64906;51.290;7.348;2023-05-15T04:47:57;98419.50;;;19.78;46.70
76156;BME280;64906;51.290;7.348;2023-05-15T04:50:23;98428.03;;;19.76;46.83
76156;BME280;64906;51.290;7.348;2023-05-15T04:52:48;98431.28;;;19.78;47.04
76156;BME280;64906;51.290;7.348;2023-05-15T04:55:13;98417.31;;;19.80;47.19
76156;BME280;64906;51.290;7.348;2023-05-15T04:57:38;98418.41;;;19.79;46.69
76156;BME280;64906;51.290;7.348;2023-05-15T05:00:05;98425.81;;;19.78;46.99
76156;BME280;64906;51.290;7.348;2023-05-15T05:02:36;98416.19;;;19.81;46.67
76156;BME280;64906;51.290;7.348;2023-05-15T05:05:01;98419.44;;;19.83;46.66
76156;BME280;64906;51.290;7.348;2023-05-15T05:07:26;98414.56;;;19.80;46.67
76156;BME280;64906;51.290;7.348;2023-05-15T05:09:52;98401.66;;;19.80;46.72
76156;BME280;64906;51.290;7.348;2023-05-15T05:12:17;98415.34;;;19.80;46.76
76156;BME280;64906;51.290;7.348;2023-05-15T05:14:42;98409.31;;;19.83;46.54
76156;BME280;64906;51.290;7.348;2023-05-15T05:17:08;98415.88;;;19.82;46.76
76156;BME280;64906;51.290;7.348;2023-05-15T05:19:34;98410.41;;;19.82;46.61
76156;BME280;64906;51.290;7.348;2023-05-15T05:21:59;98420.75;;;19.85;46.56
76156;BME280;64906;51.290;7.348;2023-05-15T05:24:28;98420.25;;;19.83;46.59
76156;BME280;64906;51.290;7.348;2023-05-15T05:26:54;98425.22;;;19.81;46.69
76156;BME280;64906;51.290;7.348;2023-05-15T05:29:22;98412.06;;;19.83;46.72
76156;BME280;64906;51.290;7.348;2023-05-15T05:31:47;98419.97;;;19.85;46.98
76156;BME280;64906;51.290;7.348;2023-05-15T05:34:13;98419.16;;;19.84;46.52
76156;BME280;64906;51.290;7.348;2023-05-15T05:36:38;98416.09;;;19.86;46.58
76156;BME280;64906;51.290;7.348;2023-05-15T05:39:03;98425.16;;;19.86;46.64
76156;BME280;64906;51.290;7.348;2023-05-15T05:41:29;98415.00;;;19.87;46.57
76156;BME280;64906;51.290;7.348;2023-05-15T05:43:54;98415.22;;;19.90;46.59
76156;BME280;64906;51.290;7.348;2023-05-15T05:46:20;98424.78;;;19.93;46.80
76156;BME280;64906;51.290;7.348;2023-05-15T05:48:45;98432.16;;;19.92;46.58
76156;BME280;64906;51.290;7.348;2023-05-15T05:51:10;98427.22;;;19.94;46.33
76156;BME280;64906;51.290;7.348;2023-05-15T05:53:36;98426.91;;;19.96;46.42
76156;BME280;64906;51.290;7.348;2023-05-15T05:56:01;98422.56;;;19.95;46.47
76156;BME280;64906;51.290;7.348;2023-05-15T05:58:26;98415.94;;;19.96;46.24
76156;BME280;64906;51.290;7.348;2023-05-15T06:00:52;98419.22;;;19.98;46.24
76156;BME280;64906;51.290;7.348;2023-05-15T06:03:17;98418.38;;;19.97;46.36
76156;BME280;64906;51.290;7.348;2023-05-15T06:05:43;98417.00;;;20.00;46.56
76156;BME280;64906;51.290;7.348;2023-05-15T06:08:08;98423.28;;;20.00;46.15
76156;BME280;64906;51.290;7.348;2023-05-15T06:10:34;98432.00;;;20.02;46.24
76156;BME280;64906;51.290;7.348;2023-05-15T06:12:59;98428.53;;;19.97;46.36
76156;BME280;64906;51.290;7.348;2023-05-15T06:15:25;98438.31;;;20.03;46.32
76156;BME280;64906;51.290;7.348;2023-05-15T06:17:51;98437.19;;;20.04;46.03
76156;BME280;64906;51.290;7.348;2023-05-15T06:20:16;98433.13;;;20.01;46.37
76156;BME280;64906;51.290;7.348;2023-05-15T06:22:42;98436.38;;;20.03;46.42
76156;BME280;64906;51.290;7.348;2023-05-15T06:25:07;98442.97;;;20.02;46.37
76156;BME280;64906;51.290;7.348;2023-05-15T06:27:38;98438.81;;;20.05;46.08
76156;BME280;64906;51.290;7.348;2023-05-15T06:30:04;98439.63;;;20.05;46.19
76156;BME280;64906;51.290;7.348;2023-05-15T06:32:30;98440.47;;;20.06;46.00
76156;BME280;64906;51.290;7.348;2023-05-15T06:34:57;98445.34;;;20.09;46.04
76156;BME280;64906;51.290;7.348;2023-05-15T06:37:22;98443.41;;;20.10;45.88
76156;BME280;64906;51.290;7.348;2023-05-15T06:39:48;98446.38;;;20.13;45.89
76156;BME280;64906;51.290;7.348;2023-05-15T06:42:13;98446.13;;;20.15;45.75
76156;BME280;64906;51.290;7.348;2023-05-15T06:44:39;98457.88;;;20.15;45.97
76156;BME280;64906;51.290;7.348;2023-05-15T06:47:04;98455.66;;;20.17;45.88
76156;BME280;64906;51.290;7.348;2023-05-15T06:49:30;98445.50;;;20.18;45.91
76156;BME280;64906;51.290;7.348;2023-05-15T06:51:55;98449.88;;;20.19;45.84
76156;BME280;64906;51.290;7.348;2023-05-15T06:54:21;98452.53;;;20.24;45.82
76156;BME280;64906;51.290;7.348;2023-05-15T06:56:47;98449.19;;;20.27;45.97
76156;BME280;64906;51.290;7.348;2023-05-15T06:59:12;98451.63;;;20.28;45.84
76156;BME280;64906;51.290;7.348;2023-05-15T07:01:37;98441.56;;;20.24;45.90
76156;BME280;64906;51.290;7.348;2023-05-15T07:04:03;98443.22;;;20.25;45.95
76156;BME280;64906;51.290;7.348;2023-05-15T07:06:29;98439.94;;;20.23;45.60
76156;BME280;64906;51.290;7.348;2023-05-15T07:08:59;98441.56;;;20.24;45.67
76156;BME280;64906;51.290;7.348;2023-05-15T07:11:25;98443.47;;;20.23;45.75
76156;BME280;64906;51.290;7.348;2023-05-15T07:13:53;98447.03;;;20.24;46.17
76156;BME280;64906;51.290;7.348;2023-05-15T07:16:19;98446.75;;;20.25;45.91
76156;BME280;64906;51.290;7.348;2023-05-15T07:18:44;98447.66;;;20.21;45.83
76156;BME280;64906;51.290;7.348;2023-05-15T07:21:10;98452.16;;;20.30;45.62
76156;BME280;64906;51.290;7.348;2023-05-15T07:23:35;98452.66;;;20.32;45.77
76156;BME280;64906;51.290;7.348;2023-05-15T07:26:00;98461.03;;;20.41;45.69
76156;BME280;64906;51.290;7.348;2023-05-15T07:28:25;98457.59;;;20.49;45.37
76156;BME280;64906;51.290;7.348;2023-05-15T07:30:51;98457.59;;;20.49;45.54
76156;BME280;64906;51.290;7.348;2023-05-15T07:33:16;98465.09;;;20.43;45.58
76156;BME280;64906;51.290;7.348;2023-05-15T07:35:42;98463.16;;;20.44;45.34
76156;BME280;64906;51.290;7.348;2023-05-15T07:38:07;98464.47;;;20.46;45.38
76156;BME280;64906;51.290;7.348;2023-05-15T07:40:33;98462.56;;;20.47;45.30
76156;BME280;64906;51.290;7.348;2023-05-15T07:42:58;98460.94;;;20.46;45.26
76156;BME280;64906;51.290;7.348;2023-05-15T07:45:23;98457.91;;;20.47;45.49
76156;BME280;64906;51.290;7.348;2023-05-15T07:47:49;98451.00;;;20.50;45.33
76156;BME280;64906;51.290;7.348;2023-05-15T07:50:15;98451.22;;;20.53;45.40
76156;BME280;64906;51.290;7.348;2023-05-15T07:52:40;98452.56;;;20.56;45.44
76156;BME280;64906;51.290;7.348;2023-05-15T07:55:08;98459.03;;;20.60;44.87
76156;BME280;64906;51.290;7.348;2023-05-15T07:57:33;98455.19;;;20.61;45.26
76156;BME280;64906;51.290;7.348;2023-05-15T07:59:59;98454.09;;;20.62;45.16
76156;BME280;64906;51.290;7.348;2023-05-15T08:02:26;98458.13;;;20.64;44.86
76156;BME280;64906;51.290;7.348;2023-05-15T08:04:51;98453.78;;;20.63;45.08
76156;BME280;64906;51.290;7.348;2023-05-15T08:07:17;98457.72;;;20.57;45.37
76156;BME280;64906;51.290;7.348;2023-05-15T08:09:42;98450.81;;;20.60;45.01
76156;BME280;64906;51.290;7.348;2023-05-15T08:12:15;98443.72;;;20.59;45.45
76156;BME280;64906;51.290;7.348;2023-05-15T08:14:49;98448.59;;;20.62;44.95
76156;BME280;64906;51.290;7.348;2023-05-15T08:17:15;98453.56;;;20.60;45.16
76156;BME280;64906;51.290;7.348;2023-05-15T08:19:41;98450.28;;;20.58;45.24
76156;BME280;64906;51.290;7.348;2023-05-15T08:22:06;98444.59;;;20.54;45.14
76156;BME280;64906;51.290;7.348;2023-05-15T08:24:32;98455.78;;;20.58;45.05
76156;BME280;64906;51.290;7.348;2023-05-15T08:26:57;98450.50;;;20.61;45.40
76156;BME280;64906;51.290;7.348;2023-05-15T08:29:22;98455.69;;;20.63;44.93
76156;BME280;64906;51.290;7.348;2023-05-15T08:31:48;98450.28;;;20.58;45.67
76156;BME280;64906;51.290;7.348;2023-05-15T08:34:13;98454.91;;;20.62;45.37
76156;BME280;64906;51.290;7.348;2023-05-15T08:36:38;98449.50;;;20.57;45.78
76156;BME280;64906;51.290;7.348;2023-05-15T08:39:03;98458.75;;;20.61;45.81
76156;BME280;64906;51.290;7.348;2023-05-15T08:41:37;98461.41;;;20.66;45.27
76156;BME280;64906;51.290;7.348;2023-05-15T08:44:05;98456.72;;;20.67;45.60
76156;BME280;64906;51.290;7.348;2023-05-15T08:46:33;98450.84;;;20.73;45.39
76156;BME280;64906;51.290;7.348;2023-05-15T08:49:01;98452.47;;;20.74;45.46
76156;BME280;64906;51.290;7.348;2023-05-15T08:51:32;98449.41;;;20.76;44.97
76156;BME280;64906;51.290;7.348;2023-05-15T08:53:57;98443.16;;;20.75;45.12
76156;BME280;64906;51.290;7.348;2023-05-15T08:56:23;98444.47;;;20.78;45.31
76156;BME280;64906;51.290;7.348;2023-05-15T08:58:49;98442.84;;;20.77;45.31
76156;BME280;64906;51.290;7.348;2023-05-15T09:01:15;98436.53;;;20.76;45.17
76156;BME280;64906;51.290;7.348;2023-05-15T09:03:40;98439.78;;;20.78;45.09
76156;BME280;64906;51.290;7.348;2023-05-15T09:06:08;98448.50;;;20.80;45.13
76156;BME280;64906;51.290;7.348;2023-05-15T09:08:34;98445.66;;;20.85;44.97
76156;BME280;64906;51.290;7.348;2023-05-15T09:11:01;98446.50;;;20.86;44.83
76156;BME280;64906;51.290;7.348;2023-05-15T09:13:28;98438.78;;;20.88;44.86
76156;BME280;64906;51.290;7.348;2023-05-15T09:15:55;98440.91;;;20.91;44.93
76156;BME280;64906;51.290;7.348;2023-05-15T09:18:20;98437.34;;;20.90;45.08
76156;BME280;64906;51.290;7.348;2023-05-15T09:20:46;98448.00;;;20.92;44.85
76156;BME280;64906;51.290;7.348;2023-05-15T09:23:25;98449.88;;;20.96;44.93
76156;BME280;64906;51.290;7.348;2023-05-15T09:25:52;98445.00;;;20.93;44.92
76156;BME280;64906;51.290;7.348;2023-05-15T09:28:29;98453.13;;;20.98;44.80
76156;BME280;64906;51.290;7.348;2023-05-15T09:31:00;98452.72;;;21.05;44.92
76156;BME280;64906;51.290;7.348;2023-05-15T09:33:31;98446.97;;;21.06;44.56
76156;BME280;64906;51.290;7.348;2023-05-15T09:35:57;98447.75;;;21.07;44.63
76156;BME280;64906;51.290;7.348;2023-05-15T09:38:22;98444.22;;;21.06;44.66
76156;BME280;64906;51.290;7.348;2023-05-15T09:40:47;98449.41;;;21.08;44.91
76156;BME280;64906;51.290;7.348;2023-05-15T09:43:13;98452.16;;;21.08;44.43
76156;BME280;64906;51.290;7.348;2023-05-15T09:45:39;98454.06;;;21.07;44.79
76156;BME280;64906;51.290;7.348;2023-05-15T09:48:06;98454.69;;;21.04;44.74
76156;BME280;64906;51.290;7.348;2023-05-15T09:50:36;98459.16;;;21.00;44.52
76156;BME280;64906;51.290;7.348;2023-05-15T09:53:02;98449.00;;;21.01;44.99
76156;BME280;64906;51.290;7.348;2023-05-15T09:55:30;98443.81;;;20.99;44.90
76156;BME280;64906;51.290;7.348;2023-05-15T10:00:33;98454.91;;;21.08;44.49
76156;BME280;64906;51.290;7.348;2023-05-15T10:03:00;98443.31;;;21.11;44.54
76156;BME280;64906;51.290;7.348;2023-05-15T10:05:26;98451.22;;;21.12;44.73
76156;BME280;64906;51.290;7.348;2023-05-15T10:07:55;98436.47;;;21.08;44.51
76156;BME280;64906;51.290;7.348;2023-05-15T10:10:22;98445.44;;;21.14;44.51
76156;BME280;64906;51.290;7.348;2023-05-15T10:12:49;98439.34;;;21.17;44.88
76156;BME280;64906;51.290;7.348;2023-05-15T10:15:16;98438.19;;;21.18;44.82
76156;BME280;64906;51.290;7.348;2023-05-15T10:17:43;98429.38;;;21.21;44.73
76156;BME280;64906;51.290;7.348;2023-05-15T10:20:09;98434.03;;;21.20;44.71
76156;BME280;64906;51.290;7.348;2023-05-15T10:22:39;98427.13;;;21.23;44.90
76156;BME280;64906;51.290;7.348;2023-05-15T10:25:32;98431.50;;;21.24;44.90
76156;BME280;64906;51.290;7.348;2023-05-15T10:28:01;98426.03;;;21.24;45.06
76156;BME280;64906;51.290;7.348;2023-05-15T10:30:27;98427.44;;;21.21;45.59
76156;BME280;64906;51.290;7.348;2023-05-15T10:32:54;98432.13;;;21.21;45.54
76156;BME280;64906;51.290;7.348;2023-05-15T10:35:20;98425.50;;;21.22;45.07
76156;BME280;64906;51.290;7.348;2023-05-15T10:37:47;98432.91;;;21.21;45.32
76156;BME280;64906;51.290;7.348;2023-05-15T10:40:14;98433.75;;;21.22;45.43
76156;BME280;64906;51.290;7.348;2023-05-15T10:42:42;98437.63;;;21.21;45.33
76156;BME280;64906;51.290;7.348;2023-05-15T10:45:07;98425.19;;;21.23;45.06
76156;BME280;64906;51.290;7.348;2023-05-15T10:47:34;98418.41;;;21.21;45.19
76156;BME280;64906;51.290;7.348;2023-05-15T10:50:00;98411.78;;;21.22;45.08
76156;BME280;64906;51.290;7.348;2023-05-15T10:52:26;98421.31;;;21.24;45.21
76156;BME280;64906;51.290;7.348;2023-05-15T10:54:52;98401.22;;;21.15;45.05
76156;BME280;64906;51.290;7.348;2023-05-15T10:57:19;98409.53;;;21.24;45.11
76156;BME280;64906;51.290;7.348;2023-05-15T10:59:45;98398.56;;;21.24;45.27
76156;BME280;64906;51.290;7.348;2023-05-15T11:04:47;98395.50;;;21.25;45.03
76156;BME280;64906;51.290;7.348;2023-05-15T11:07:14;98400.38;;;21.28;44.94
76156;BME280;64906;51.290;7.348;2023-05-15T11:09:40;98397.31;;;21.30;44.89
76156;BME280;64906;51.290;7.348;2023-05-15T11:12:07;98395.91;;;21.33;44.65
76156;BME280;64906;51.290;7.348;2023-05-15T11:14:35;98388.78;;;21.31;45.29
76156;BME280;64906;51.290;7.348;2023-05-15T11:17:11;98385.09;;;21.36;45.09
76156;BME280;64906;51.290;7.348;2023-05-15T11:25:05;98397.72;;;21.37;45.13
76156;BME280;64906;51.290;7.348;2023-05-15T11:27:41;98385.94;;;21.37;44.96
76156;BME280;64906;51.290;7.348;2023-05-15T11:37:50;98379.25;;;21.29;44.89
76156;BME280;64906;51.290;7.348;2023-05-15T11:40:25;98373.94;;;21.33;44.92
76156;BME280;64906;51.290;7.348;2023-05-15T11:43:18;98382.66;;;21.34;45.09
76156;BME280;64906;51.290;7.348;2023-05-15T11:45:51;98377.50;;;21.33;44.70
76156;BME280;64906;51.290;7.348;2023-05-15T11:48:18;98361.63;;;21.30;44.79
76156;BME280;64906;51.290;7.348;2023-05-15T11:50:43;98368.25;;;21.29;45.16
76156;BME280;64906;51.290;7.348;2023-05-15T11:53:10;98362.66;;;21.34;44.79
76156;BME280;64906;51.290;7.348;2023-05-15T11:55:36;98361.53;;;21.35;44.71
76156;BME280;64906;51.290;7.348;2023-05-15T11:58:02;98363.13;;;21.36;44.82
76156;BME280;64906;51.290;7.348;2023-05-15T12:00:29;98364.78;;;21.37;44.66
76156;BME280;64906;51.290;7.348;2023-05-15T12:02:54;98364.47;;;21.39;44.78
76156;BME280;64906;51.290;7.348;2023-05-15T12:05:20;98364.47;;;21.39;44.57
76156;BME280;64906;51.290;7.348;2023-05-15T12:07:45;98356.03;;;21.35;45.00
76156;BME280;64906;51.290;7.348;2023-05-15T12:10:12;98359.28;;;21.37;44.97
76156;BME280;64906;51.290;7.348;2023-05-15T12:12:41;98359.81;;;21.39;44.99
76156;BME280;64906;51.290;7.348;2023-05-15T12:15:11;98364.16;;;21.40;44.63
76156;BME280;64906;51.290;7.348;2023-05-15T12:17:38;98352.03;;;21.41;44.66
76156;BME280;64906;51.290;7.348;2023-05-15T12:20:07;98362.72;;;21.43;44.64
76156;BME280;64906;51.290;7.348;2023-05-15T12:22:37;98355.59;;;21.42;44.84
76156;BME280;64906;51.290;7.348;2023-05-15T12:25:05;98359.69;;;21.44;44.78
76156;BME280;64906;51.290;7.348;2023-05-15T12:27:31;98354.19;;;21.44;44.68
76156;BME280;64906;51.290;7.348;2023-05-15T12:29:57;98349.19;;;21.46;44.97
76156;BME280;64906;51.290;7.348;2023-05-15T12:32:23;98342.59;;;21.47;44.40
76156;BME280;64906;51.290;7.348;2023-05-15T12:34:48;98347.25;;;21.47;44.82
76156;BME280;64906;51.290;7.348;2023-05-15T12:37:14;98338.72;;;21.48;44.32
76156;BME280;64906;51.290;7.348;2023-05-15T12:39:53;98328.53;;;21.49;44.44
76156;BME280;64906;51.290;7.348;2023-05-15T12:42:19;98338.72;;;21.48;44.29
76156;BME280;64906;51.290;7.348;2023-05-15T12:44:44;98332.41;;;21.48;44.80
76156;BME280;64906;51.290;7.348;2023-05-15T12:47:13;98335.44;;;21.46;44.39
76156;BME280;64906;51.290;7.348;2023-05-15T12:49:40;98341.78;;;21.47;44.74
76156;BME280;64906;51.290;7.348;2023-05-15T12:52:09;98337.41;;;21.46;44.52
76156;BME280;64906;51.290;7.348;2023-05-15T12:54:42;98337.31;;;21.37;44.80
76156;BME280;64906;51.290;7.348;2023-05-15T12:57:08;98342.69;;;21.42;44.53
76156;BME280;64906;51.290;7.348;2023-05-15T12:59:34;98348.50;;;21.41;44.63
76156;BME280;64906;51.290;7.348;2023-05-15T13:02:00;98343.22;;;21.44;44.95
76156;BME280;64906;51.290;7.348;2023-05-15T13:04:25;98340.94;;;21.46;44.71
76156;BME280;64906;51.290;7.348;2023-05-15T13:06:51;98329.34;;;21.49;44.82
76156;BME280;64906;51.290;7.348;2023-05-15T13:09:22;98330.97;;;21.50;44.82
76156;BME280;64906;51.290;7.348;2023-05-15T13:11:50;98324.66;;;21.50;44.54
76156;BME280;64906;51.290;7.348;2023-05-15T13:14:16;98329.06;;;21.51;44.27
76156;BME280;64906;51.290;7.348;2023-05-15T13:16:44;98329.06;;;21.51;44.59
76156;BME280;64906;51.290;7.348;2023-05-15T13:19:11;98321.28;;;21.53;44.29